Terminal Aerodrome Forecast
Issued by NWS Dodge City, KS

Home | Current Version | Previous Version | Graphics & Text | Print | Product List | Glossary Off
Versions: 1 2 3 4 5 6 7 8 9 10 11 12 13 14 15 16 17 18 19 20

000
FTUS43 KDDC 241720
TAFDDC
TAF
KDDC 241720Z 2418/2518 35009KT P6SM SKC
     FM242300 17008KT P6SM SKC
     FM250700 16011KT P6SM SKC WS020/18040KT
     FM251200 17011G20KT P6SM SKC=

USA.gov is the U.S. government's official web portal to all federal, state and local government web resources and services.